^^
Meteo Knjazevac Station Historical Data
Daily Summary for June 26, 2021 Units:  Metric    English   Both
Daily Weekly Monthly Yearly Custom
  High: Low: Average:
Temperature: 3.7 °C 0.2 °C 1.2 °C
Dew Point: 3.6 °C 0.1 °C 1.1 °C
Humidity: 99% 98% 99%
Wind Speed: 16.1km/h 0km/h 4.8km/h
Wind Gust: 24.1km/h - -
Wind- - SE
Pressure: 1011.1 hPa 1005 hPa -
Precipitation: 3.56 mm    
Historical Graphs
 
 
Tabular Data for June 26, 2021
Time Temperature Dew Point Pressure Wind Wind Speed Wind Gust Humidity Rainfall Rate (Hourly) solar Conditions
00:00 3.4 °C 3.3 °C 1005.3 hPa SSE 3.2 km/h 17.7 km/h 99% 0.25 mm 0 W/m2
00:10 3.4 °C 3.3 °C 1005.3 hPa SSE 1.6 km/h 11.3 km/h 99% 0.25 mm 0 W/m2
00:20 3.5 °C 3.3 °C 1005.3 hPa SSW 3.2 km/h 6.4 km/h 99% 0.25 mm 0 W/m2
00:30 3.6 °C 3.4 °C 1005.3 hPa SE 9.7 km/h 19.3 km/h 99% 0 mm 0 W/m2
00:40 3.7 °C 3.4 °C 1005.3 hPa ESE 3.2 km/h 19.3 km/h 98% 0 mm 0 W/m2
00:50 3.7 °C 3.4 °C 1005 hPa ESE 4.8 km/h 12.9 km/h 98% 0 mm 0 W/m2
01:00 3.7 °C 3.6 °C 1005 hPa NNE 4.8 km/h 11.3 km/h 99% 0 mm 0 W/m2
01:10 3.5 °C 3.3 °C 1005.3 hPa NNE 9.7 km/h 22.5 km/h 99% 0 mm 0 W/m2
01:20 3.2 °C 3.1 °C 1005.3 hPa North 11.3 km/h 19.3 km/h 99% 0 mm 0 W/m2
01:30 2.7 °C 2.6 °C 1005.3 hPa NNE 14.5 km/h 22.5 km/h 99% 0.25 mm 0 W/m2
01:40 2.5 °C 2.3 °C 1005.3 hPa NNE 11.3 km/h 22.5 km/h 99% 0.25 mm 0 W/m2
01:50 2.4 °C 2.3 °C 1005.3 hPa NNE 9.7 km/h 17.7 km/h 99% 0.25 mm 0 W/m2
02:00 2.3 °C 2.2 °C 1005.3 hPa NNE 8 km/h 19.3 km/h 99% 0.25 mm 0 W/m2
02:10 2.2 °C 2.1 °C 1005.3 hPa NNE 11.3 km/h 19.3 km/h 99% 0.25 mm 0 W/m2
02:20 2.1 °C 1.9 °C 1005.3 hPa NNE 16.1 km/h 24.1 km/h 99% 0.25 mm 0 W/m2
02:30 1.9 °C 1.7 °C 1005.3 hPa NNE 16.1 km/h 24.1 km/h 99% 0.25 mm 0 W/m2
02:40 1.8 °C 1.6 °C 1005.3 hPa NNE 9.7 km/h 24.1 km/h 99% 0.25 mm 0 W/m2
02:50 1.7 °C 1.6 °C 1005.3 hPa NNE 11.3 km/h 19.3 km/h 99% 0.25 mm 0 W/m2
03:00 1.6 °C 1.4 °C 1005.6 hPa NNE 9.7 km/h 20.9 km/h 99% 0.25 mm 0 W/m2
03:10 1.5 °C 1.3 °C 1005.3 hPa NNE 9.7 km/h 19.3 km/h 99% 0 mm 0 W/m2
03:20 1.4 °C 1.3 °C 1005.6 hPa NNE 11.3 km/h 19.3 km/h 99% 0 mm 0 W/m2
03:30 1.3 °C 1.2 °C 1005.6 hPa NNE 9.7 km/h 17.7 km/h 99% 0 mm 0 W/m2
03:40 1.2 °C 1.1 °C 1005.6 hPa NNE 4.8 km/h 14.5 km/h 99% 0 mm 0 W/m2
03:50 1.2 °C 1.1 °C 1005.6 hPa NNE 11.3 km/h 22.5 km/h 99% 0.25 mm 0 W/m2
04:00 1.1 °C 0.9 °C 1006 hPa NNE 11.3 km/h 22.5 km/h 99% 0.25 mm 0 W/m2
04:10 1.1 °C 0.9 °C 1006.3 hPa NNE 3.2 km/h 20.9 km/h 99% 0.25 mm 0 W/m2
04:20 1 °C 0.8 °C 1006.3 hPa NNE 8 km/h 19.3 km/h 99% 0 mm 0 W/m2
04:30 0.8 °C 0.7 °C 1006.7 hPa North 11.3 km/h 16.1 km/h 99% 0 mm 0 W/m2
04:40 0.6 °C 0.4 °C 1006.7 hPa NNE 8 km/h 16.1 km/h 99% 0 mm 0 W/m2
04:50 0.5 °C 0.4 °C 1006.7 hPa NE 4.8 km/h 19.3 km/h 99% 0 mm 0 W/m2
05:00 0.4 °C 0.3 °C 1007 hPa South 3.2 km/h 9.7 km/h 99% 0 mm 0 W/m2
05:10 0.4 °C 0.3 °C 1007 hPa South 1.6 km/h 8 km/h 99% 0 mm 0 W/m2
05:20 0.3 °C 0.2 °C 1007 hPa SE 1.6 km/h 8 km/h 99% 0 mm 0 W/m2
05:30 0.3 °C 0.2 °C 1007.3 hPa SSE 3.2 km/h 8 km/h 99% 0 mm 0 W/m2
05:40 0.3 °C 0.2 °C 1007.3 hPa SSE 1.6 km/h 4.8 km/h 99% 0 mm 0 W/m2
05:50 0.3 °C 0.2 °C 1007.7 hPa South 1.6 km/h 9.7 km/h 99% 0 mm 0 W/m2
06:00 0.3 °C 0.2 °C 1007.7 hPa SSE 1.6 km/h 11.3 km/h 99% 0 mm 0 W/m2
06:10 0.2 °C 0.1 °C 1008 hPa SSE 1.6 km/h 8 km/h 99% 0 mm 0 W/m2
06:20 0.3 °C 0.2 °C 1008 hPa SSE 1.6 km/h 8 km/h 99% 0 mm 0 W/m2
06:30 0.3 °C 0.2 °C 1008 hPa SSE 3.2 km/h 8 km/h 99% 0 mm 0 W/m2
06:40 0.2 °C 0.1 °C 1008 hPa SSE 1.6 km/h 8 km/h 99% 0 mm 0 W/m2
06:50 0.2 °C 0.1 °C 1008.4 hPa SW 3.2 km/h 6.4 km/h 99% 0 mm 0 W/m2
07:00 0.2 °C 0.1 °C 1008.7 hPa SW 3.2 km/h 6.4 km/h 99% 0 mm 0 W/m2
07:10 0.2 °C 0.1 °C 1008.7 hPa West 1.6 km/h 8 km/h 99% 0 mm 0 W/m2
07:20 0.2 °C 0.1 °C 1008.7 hPa WSW 1.6 km/h 8 km/h 99% 0 mm 1 W/m2
07:30 0.2 °C 0.1 °C 1009 hPa SSE 1.6 km/h 6.4 km/h 99% 0 mm 1 W/m2
07:40 0.2 °C 0.1 °C 1009.4 hPa SSW 1.6 km/h 4.8 km/h 99% 0 mm 2 W/m2
07:50 0.2 °C 0.1 °C 1009.7 hPa SW 1.6 km/h 4.8 km/h 99% 0 mm 3 W/m2
08:00 0.2 °C 0.1 °C 1009.4 hPa South 1.6 km/h 4.8 km/h 99% 0 mm 4 W/m2
08:10 0.2 °C 0.1 °C 1009.7 hPa NE 1.6 km/h 8 km/h 99% 0 mm 6 W/m2
08:20 0.3 °C 0.2 °C 1009.7 hPa NNW 3.2 km/h 6.4 km/h 99% 0 mm 7 W/m2
08:30 0.3 °C 0.2 °C 1009.7 hPa NNW 3.2 km/h 6.4 km/h 99% 0 mm 10 W/m2
08:40 0.3 °C 0.2 °C 1010 hPa ENE 1.6 km/h 4.8 km/h 99% 0 mm 14 W/m2
08:50 0.3 °C 0.2 °C 1010 hPa SSW 1.6 km/h 4.8 km/h 99% 0 mm 15 W/m2
09:00 0.4 °C 0.3 °C 1010 hPa Calm   3.2 km/h 99% 0 mm 20 W/m2
09:10 0.5 °C 0.4 °C 1010.4 hPa WNW 1.6 km/h 4.8 km/h 99% 0 mm 22 W/m2
09:20 0.6 °C 0.4 °C 1010.4 hPa Calm   3.2 km/h 99% 0 mm 27 W/m2
09:30 0.6 °C 0.4 °C 1010.4 hPa NNW 3.2 km/h 6.4 km/h 99% 0 mm 28 W/m2
09:40 0.7 °C 0.6 °C 1010.7 hPa NW 1.6 km/h 6.4 km/h 99% 0 mm 33 W/m2
09:50 0.8 °C 0.7 °C 1010.7 hPa West 1.6 km/h 3.2 km/h 99% 0 mm 25 W/m2
10:00 0.8 °C 0.7 °C 1010.7 hPa West 1.6 km/h 3.2 km/h 99% 0 mm 28 W/m2
10:10 0.8 °C 0.7 °C 1011.1 hPa WNW 1.6 km/h 4.8 km/h 99% 0 mm 29 W/m2
10:20 0.8 °C 0.7 °C 1011.1 hPa West 1.6 km/h 4.8 km/h 99% 0 mm 29 W/m2
10:30 0.9 °C 0.8 °C 1010.7 hPa WSW 1.6 km/h 4.8 km/h 99% 0 mm 34 W/m2
10:40 0.9 °C 0.8 °C 1010.7 hPa WSW 1.6 km/h 3.2 km/h 99% 0 mm 35 W/m2
10:50 1 °C 0.8 °C 1010.7 hPa WSW 1.6 km/h 3.2 km/h 99% 0 mm 32 W/m2
11:00 1 °C 0.8 °C 1010.7 hPa WNW 1.6 km/h 3.2 km/h 99% 0 mm 39 W/m2
11:10 1.1 °C 0.9 °C 1010.7 hPa NNW 1.6 km/h 3.2 km/h 99% 0 mm 46 W/m2
Knjazevac, Serbia
Compliments of Weather Underground - 2 mb